Woodson Terrace, Missouri
Current Conditions -  °F | °C
As of 10:51 AM on Friday 31 Oct 2014 (Local Time) from KSTL Reporting Station
Few Clouds Few Clouds  
Wind Chill: 34°   Ceiling: Unl
Heat Index: 43°   Visibility: 10mi
Dew Point: 23°   Wind: 20mph
Humidity: 45%   Direction: 330°NNW
Pressure: 30.28"   Gusts: 31mph
Location:  38.7422°N, 90.3457°W
Report Text: KSTL 311551Z 33017G27KT 10SM FEW046 06/M05 A3028 RMK AO2 PK WND 34027/1544 SLP258 T00611050
Loading
Personal Weather Stations






























Interactive Weather Map
Tropical Storm Tracking
New forecast layout! Learn more

10-Day Weather Forecast

Advertisements
Track Severe Weather on mobile